createdAt,value
2023-04-27T00:01:13.909Z,100630.59
2023-04-27T00:03:40.526Z,100625.38
2023-04-27T00:06:07.744Z,100616.50
2023-04-27T00:08:34.274Z,100621.47
2023-04-27T00:11:00.716Z,100618.97
2023-04-27T00:13:27.180Z,100611.84
2023-04-27T00:15:53.741Z,100621.09
2023-04-27T00:18:20.487Z,100619.72
2023-04-27T00:20:46.947Z,100609.09
2023-04-27T00:23:13.730Z,100606.63
2023-04-27T00:25:40.106Z,100607.59
2023-04-27T00:28:06.539Z,100610.34
2023-04-27T00:30:32.926Z,100612.59
2023-04-27T00:33:00.809Z,100604.41
2023-04-27T00:35:27.550Z,100612.31
2023-04-27T00:37:54.706Z,100609.22
2023-04-27T00:40:21.274Z,100605.97
2023-04-27T00:42:47.859Z,100608.22
2023-04-27T00:45:14.457Z,100607.09
2023-04-27T00:47:40.910Z,100607.97
2023-04-27T00:50:08.794Z,100603.09
2023-04-27T00:52:36.082Z,100602.03
2023-04-27T00:55:02.924Z,100604.75
2023-04-27T00:57:29.453Z,100604.88
2023-04-27T00:59:55.845Z,100595.72
2023-04-27T01:02:22.818Z,100613.84
2023-04-27T01:04:50.537Z,100617.41
2023-04-27T01:07:17.003Z,100616.94
2023-04-27T01:09:43.412Z,100606.88
2023-04-27T01:12:09.833Z,100617.38
2023-04-27T01:14:36.444Z,100618.00
2023-04-27T01:17:02.957Z,100611.19
2023-04-27T01:19:29.460Z,100612.69
2023-04-27T01:21:55.947Z,100619.72
2023-04-27T01:24:24.808Z,100618.53
2023-04-27T01:26:53.825Z,100618.72
2023-04-27T01:29:21.301Z,100614.66
2023-04-27T01:31:47.792Z,100612.59
2023-04-27T01:34:15.131Z,100603.59
2023-04-27T01:36:41.501Z,100616.22
2023-04-27T01:39:09.384Z,100614.59
2023-04-27T01:41:36.782Z,100613.47
2023-04-27T01:44:03.243Z,100610.34
2023-04-27T01:46:29.726Z,100604.97
2023-04-27T01:48:56.177Z,100603.09
2023-04-27T01:51:22.597Z,100605.41
2023-04-27T01:53:49.109Z,100607.50
2023-04-27T01:59:00.205Z,100615.31
2023-04-27T02:01:26.681Z,100622.00
2023-04-27T02:03:53.322Z,100617.13
2023-04-27T02:11:50.060Z,100617.81
2023-04-27T02:14:16.481Z,100625.13
2023-04-27T02:16:42.987Z,100620.63
2023-04-27T02:19:09.413Z,100624.13
2023-04-27T02:21:36.294Z,100619.06
2023-04-27T02:24:02.738Z,100630.00
2023-04-27T02:26:29.360Z,100615.50
2023-04-27T02:29:34.539Z,100628.13
2023-04-27T02:32:57.514Z,100631.00
2023-04-27T02:40:01.057Z,100625.19
2023-04-27T02:43:23.596Z,100630.69
2023-04-27T02:46:46.360Z,100635.00
2023-04-27T02:50:09.245Z,100629.31
2023-04-27T02:53:32.044Z,100643.69
2023-04-27T02:56:54.705Z,100640.94
2023-04-27T03:00:17.788Z,100644.50
2023-04-27T03:07:21.298Z,100646.19
2023-04-27T03:10:44.147Z,100646.97
2023-04-27T03:21:21.715Z,100635.31
2023-04-27T03:23:49.183Z,100639.56
2023-04-27T03:26:15.980Z,100635.38
2023-04-27T03:28:42.493Z,100632.28
2023-04-27T03:31:09.465Z,100640.75
2023-04-27T03:33:36.401Z,100647.22
2023-04-27T03:36:04.341Z,100647.38
2023-04-27T03:38:31.085Z,100653.88
2023-04-27T03:40:57.654Z,100643.47
2023-04-27T03:43:24.154Z,100653.59
2023-04-27T03:45:50.692Z,100654.13
2023-04-27T03:48:17.866Z,100651.88
2023-04-27T03:50:45.308Z,100653.03
2023-04-27T03:53:12.010Z,100644.34
2023-04-27T03:55:39.218Z,100640.25
2023-04-27T03:58:06.197Z,100636.38
2023-04-27T04:00:34.385Z,100635.50
2023-04-27T04:03:01.401Z,100636.13
2023-04-27T04:05:28.046Z,100639.63
2023-04-27T04:07:54.441Z,100641.44
2023-04-27T04:10:21.945Z,100643.38
2023-04-27T04:12:50.570Z,100641.38
2023-04-27T04:15:17.042Z,100649.41
2023-04-27T04:17:43.898Z,100646.31
2023-04-27T04:20:10.852Z,100650.22
2023-04-27T04:22:37.825Z,100657.66
2023-04-27T04:25:04.511Z,100652.44
2023-04-27T04:27:31.767Z,100653.88
2023-04-27T04:30:00.241Z,100651.13
2023-04-27T04:32:28.448Z,100646.91
2023-04-27T04:34:54.861Z,100649.50
2023-04-27T04:37:23.211Z,100653.88
2023-04-27T04:39:50.823Z,100643.72
2023-04-27T04:42:17.296Z,100649.88
2023-04-27T04:44:44.545Z,100659.16
2023-04-27T04:47:11.953Z,100650.91
2023-04-27T04:49:38.382Z,100653.00
2023-04-27T04:52:05.074Z,100656.88
2023-04-27T04:54:32.637Z,100663.28
2023-04-27T04:57:00.928Z,100665.66
2023-04-27T04:59:27.339Z,100662.72
2023-04-27T05:01:56.743Z,100664.94
2023-04-27T05:04:23.314Z,100662.09
2023-04-27T05:06:49.821Z,100657.50
2023-04-27T05:09:16.176Z,100658.28
2023-04-27T05:11:42.652Z,100666.09
2023-04-27T05:14:09.084Z,100674.53
2023-04-27T05:16:35.754Z,100673.41
2023-04-27T05:19:02.208Z,100683.59
2023-04-27T05:21:28.701Z,100662.75
2023-04-27T05:23:55.291Z,100674.75
2023-04-27T05:26:21.864Z,100678.91
2023-04-27T05:28:49.326Z,100678.72
2023-04-27T05:31:15.900Z,100683.22
2023-04-27T05:33:42.378Z,100688.72
2023-04-27T05:36:09.364Z,100684.03
2023-04-27T05:38:37.403Z,100694.84
2023-04-27T05:41:03.922Z,100692.28
2023-04-27T05:43:30.386Z,100695.78
2023-04-27T05:45:56.846Z,100697.44
2023-04-27T05:48:23.318Z,100711.38
2023-04-27T05:50:49.784Z,100701.91
2023-04-27T05:53:17.161Z,100706.59
2023-04-27T05:55:43.552Z,100704.03
2023-04-27T05:58:09.973Z,100704.19
2023-04-27T06:00:36.805Z,100701.66
2023-04-27T06:03:03.538Z,100706.16
2023-04-27T06:05:30.216Z,100705.19
2023-04-27T06:07:56.693Z,100703.03
2023-04-27T06:10:23.133Z,100718.38
2023-04-27T06:12:49.515Z,100714.41
2023-04-27T06:15:15.986Z,100711.31
2023-04-27T06:17:43.955Z,100713.94
2023-04-27T06:20:10.480Z,100719.63
2023-04-27T06:22:37.035Z,100722.44
2023-04-27T06:25:06.609Z,100707.31
2023-04-27T06:27:33.264Z,100727.50
2023-04-27T06:29:59.722Z,100719.00
2023-04-27T06:32:26.164Z,100722.06
2023-04-27T06:34:52.598Z,100720.88
2023-04-27T06:37:19.072Z,100723.69
2023-04-27T06:39:46.733Z,100719.75
2023-04-27T06:42:13.378Z,100722.44
2023-04-27T06:44:39.857Z,100721.53
2023-04-27T06:47:06.510Z,100729.44
2023-04-27T06:49:32.924Z,100720.88
2023-04-27T06:51:59.768Z,100726.50
2023-04-27T06:54:26.495Z,100725.03
2023-04-27T06:56:54.588Z,100730.03
2023-04-27T06:59:21.462Z,100731.59
2023-04-27T07:01:47.977Z,100729.13
2023-04-27T07:04:14.500Z,100726.16
2023-04-27T07:06:41.065Z,100721.00
2023-04-27T07:09:16.280Z,100728.94
2023-04-27T07:11:52.776Z,100728.94
2023-04-27T07:14:19.235Z,100737.56
2023-04-27T07:16:47.312Z,100736.81
2023-04-27T07:19:14.034Z,100739.91
2023-04-27T07:21:41.140Z,100740.16
2023-04-27T07:24:07.897Z,100734.94
2023-04-27T07:26:34.342Z,100740.81
2023-04-27T07:29:02.810Z,100735.19
2023-04-27T07:31:33.269Z,100736.22
2023-04-27T07:34:00.613Z,100729.38
2023-04-27T07:36:27.650Z,100728.44
2023-04-27T07:38:54.153Z,100728.44
2023-04-27T07:41:21.138Z,100727.63
2023-04-27T07:43:48.278Z,100730.69
2023-04-27T07:46:14.876Z,100733.19
2023-04-27T07:48:42.144Z,100729.72
2023-04-27T07:51:08.578Z,100732.03
2023-04-27T07:53:35.532Z,100729.56
2023-04-27T07:56:01.995Z,100725.88
2023-04-27T07:58:28.473Z,100724.28
2023-04-27T08:00:55.914Z,100718.63
2023-04-27T08:03:23.112Z,100717.16
2023-04-27T08:05:49.958Z,100716.34
2023-04-27T08:08:17.015Z,100720.44
2023-04-27T08:10:43.816Z,100721.88
2023-04-27T08:13:10.568Z,100725.84
2023-04-27T08:15:37.335Z,100725.25
2023-04-27T08:18:03.908Z,100721.25
2023-04-27T08:20:30.435Z,100725.31
2023-04-27T08:22:57.306Z,100720.84
2023-04-27T08:25:23.735Z,100718.81
2023-04-27T08:27:50.150Z,100715.34
2023-04-27T08:30:16.808Z,100714.81
2023-04-27T08:32:43.281Z,100716.34
2023-04-27T08:35:09.927Z,100709.72
2023-04-27T08:37:36.426Z,100710.41
2023-04-27T08:40:04.799Z,100705.56
2023-04-27T08:42:31.268Z,100708.19
2023-04-27T08:44:57.680Z,100711.06
2023-04-27T08:47:38.649Z,100709.81
2023-04-27T08:50:08.825Z,100704.72
2023-04-27T08:52:38.103Z,100707.69
2023-04-27T08:55:04.927Z,100705.97
2023-04-27T08:57:31.474Z,100704.94
2023-04-27T08:59:59.189Z,100707.56
2023-04-27T09:02:27.158Z,100713.06
2023-04-27T09:04:53.935Z,100714.69
2023-04-27T09:07:20.742Z,100719.28
2023-04-27T09:09:48.498Z,100719.72
2023-04-27T09:12:15.417Z,100713.81
2023-04-27T09:14:42.799Z,100712.69
2023-04-27T09:17:09.309Z,100710.41
2023-04-27T09:19:35.719Z,100721.66
2023-04-27T09:22:09.108Z,100721.94
2023-04-27T09:24:35.874Z,100711.94
2023-04-27T09:27:03.235Z,100712.56
2023-04-27T09:29:39.100Z,100698.19
2023-04-27T09:32:17.051Z,100697.59
2023-04-27T09:34:43.885Z,100700.13
2023-04-27T09:37:10.371Z,100691.47
2023-04-27T09:39:36.887Z,100695.34
2023-04-27T09:42:04.418Z,100700.53
2023-04-27T09:44:31.485Z,100696.53
2023-04-27T09:46:58.121Z,100694.78
2023-04-27T09:49:25.299Z,100691.72
2023-04-27T09:51:54.293Z,100686.53
2023-04-27T09:54:24.932Z,100694.91
2023-04-27T09:56:57.626Z,100692.16
2023-04-27T09:59:31.369Z,100687.78
2023-04-27T10:02:00.118Z,100680.81
2023-04-27T10:04:29.418Z,100682.66
2023-04-27T10:06:57.811Z,100691.41
2023-04-27T10:09:24.876Z,100685.91
2023-04-27T10:11:51.760Z,100681.38
2023-04-27T10:14:18.882Z,100680.78
2023-04-27T10:16:47.008Z,100682.41
2023-04-27T10:19:13.724Z,100683.41
2023-04-27T10:21:53.505Z,100675.66
2023-04-27T10:24:19.960Z,100677.16
2023-04-27T10:26:47.013Z,100677.47
2023-04-27T10:29:16.336Z,100674.38
2023-04-27T10:31:47.302Z,100673.75
2023-04-27T10:34:19.739Z,100671.53
2023-04-27T10:36:47.791Z,100670.28
2023-04-27T10:39:18.447Z,100672.88
2023-04-27T10:41:54.187Z,100670.63
2023-04-27T10:44:26.437Z,100669.00
2023-04-27T10:46:53.260Z,100668.69
2023-04-27T10:49:19.745Z,100672.75
2023-04-27T10:51:47.623Z,100668.13
2023-04-27T10:54:14.094Z,100659.75
2023-04-27T10:56:40.656Z,100658.50
2023-04-27T10:59:08.010Z,100656.84
2023-04-27T11:01:34.572Z,100658.34
2023-04-27T11:04:01.308Z,100653.19
2023-04-27T11:06:32.059Z,100649.16
2023-04-27T11:08:58.486Z,100646.13
2023-04-27T11:11:25.953Z,100640.81
2023-04-27T11:13:53.170Z,100645.53
2023-04-27T11:16:19.888Z,100640.53
2023-04-27T11:18:46.378Z,100647.69
2023-04-27T11:21:13.937Z,100641.34
2023-04-27T11:23:40.840Z,100645.69
2023-04-27T11:26:10.915Z,100645.69
2023-04-27T11:28:37.296Z,100641.78
2023-04-27T11:31:06.851Z,100636.16
2023-04-27T11:33:33.290Z,100627.88
2023-04-27T11:35:59.693Z,100633.25
2023-04-27T11:38:27.548Z,100632.75
2023-04-27T11:41:04.020Z,100629.00
2023-04-27T11:43:30.463Z,100629.63
2023-04-27T11:45:58.173Z,100624.81
2023-04-27T11:48:24.828Z,100630.84
2023-04-27T11:50:53.216Z,100624.34
2023-04-27T11:53:29.236Z,100619.81
2023-04-27T11:55:55.779Z,100615.28
2023-04-27T11:58:26.327Z,100613.97
2023-04-27T12:00:52.689Z,100606.22
2023-04-27T12:03:19.341Z,100602.97
2023-04-27T12:05:50.128Z,100599.72
2023-04-27T12:08:17.161Z,100597.78
2023-04-27T12:10:43.729Z,100594.69
2023-04-27T12:13:10.149Z,100591.94
2023-04-27T12:15:36.599Z,100590.47
2023-04-27T12:18:03.100Z,100586.91
2023-04-27T12:20:29.823Z,100583.34
2023-04-27T12:22:57.059Z,100573.44
2023-04-27T12:25:23.463Z,100572.00
2023-04-27T12:27:50.146Z,100576.03
2023-04-27T12:30:17.090Z,100577.34
2023-04-27T12:32:43.510Z,100576.03
2023-04-27T12:35:10.552Z,100577.69
2023-04-27T12:37:37.036Z,100578.31
2023-04-27T12:40:09.281Z,100576.88
2023-04-27T12:42:35.775Z,100574.41
2023-04-27T12:45:02.165Z,100563.72
2023-04-27T12:47:49.858Z,100565.00
2023-04-27T12:50:15.837Z,100561.78
2023-04-27T12:52:42.422Z,100570.53
2023-04-27T12:55:18.049Z,100568.59
2023-04-27T12:57:47.920Z,100573.13
2023-04-27T13:00:15.069Z,100573.94
2023-04-27T13:02:43.256Z,100561.56
2023-04-27T13:05:11.787Z,100570.94
2023-04-27T13:07:38.265Z,100567.16
2023-04-27T13:10:04.847Z,100556.97
2023-04-27T13:12:32.585Z,100553.09
2023-04-27T13:14:59.015Z,100550.63
2023-04-27T13:17:25.993Z,100541.59
2023-04-27T13:19:52.823Z,100540.91
2023-04-27T13:22:20.861Z,100546.41
2023-04-27T13:24:47.402Z,100552.56
2023-04-27T13:27:13.849Z,100557.16
2023-04-27T13:29:40.528Z,100554.69
2023-04-27T13:32:06.982Z,100556.16
2023-04-27T13:34:33.409Z,100545.63
2023-04-27T13:37:00.157Z,100544.78
2023-04-27T13:39:26.635Z,100547.72
2023-04-27T13:41:53.833Z,100539.16
2023-04-27T13:44:20.400Z,100546.78
2023-04-27T13:46:47.171Z,100545.75
2023-04-27T13:49:13.759Z,100540.13
2023-04-27T13:51:40.603Z,100543.38
2023-04-27T13:54:07.008Z,100542.41
2023-04-27T13:56:33.474Z,100547.88
2023-04-27T13:59:00.249Z,100545.47
2023-04-27T14:01:27.200Z,100547.41
2023-04-27T14:03:54.064Z,100554.19
2023-04-27T14:06:20.640Z,100544.97
2023-04-27T14:08:47.359Z,100543.78
2023-04-27T14:11:13.824Z,100552.75
2023-04-27T14:13:40.454Z,100548.03
2023-04-27T14:16:07.295Z,100548.22
2023-04-27T14:18:33.785Z,100552.78
2023-04-27T14:21:00.180Z,100544.19
2023-04-27T14:23:26.646Z,100538.03
2023-04-27T14:25:53.176Z,100543.41
2023-04-27T14:28:19.637Z,100542.56
2023-04-27T14:30:46.255Z,100539.53
2023-04-27T14:33:12.774Z,100539.69
2023-04-27T14:35:39.267Z,100532.25
2023-04-27T14:38:05.763Z,100538.75
2023-04-27T14:40:32.196Z,100535.19
2023-04-27T14:42:58.733Z,100533.56
2023-04-27T14:45:29.000Z,100530.00
2023-04-27T14:48:00.833Z,100529.19
2023-04-27T14:50:27.649Z,100525.44
2023-04-27T14:52:57.932Z,100523.19
2023-04-27T14:55:24.751Z,100528.19
2023-04-27T14:57:51.508Z,100534.84
2023-04-27T15:00:18.134Z,100527.06
2023-04-27T15:02:44.585Z,100522.88
2023-04-27T15:05:11.452Z,100523.97
2023-04-27T15:07:37.977Z,100527.41
2023-04-27T15:10:04.519Z,100516.53
2023-04-27T15:12:31.119Z,100519.59
2023-04-27T15:14:57.580Z,100516.53
2023-04-27T15:17:24.176Z,100515.88
2023-04-27T15:19:51.700Z,100506.81
2023-04-27T15:22:18.135Z,100505.69
2023-04-27T15:24:44.678Z,100505.50
2023-04-27T15:27:11.148Z,100499.84
2023-04-27T15:29:37.617Z,100495.78
2023-04-27T15:32:04.231Z,100500.00
2023-04-27T15:34:31.131Z,100492.19
2023-04-27T15:36:57.740Z,100485.06
2023-04-27T15:39:24.189Z,100491.41
2023-04-27T15:41:50.707Z,100481.16
2023-04-27T15:44:17.166Z,100479.53
2023-04-27T15:46:43.673Z,100475.63
2023-04-27T15:49:12.457Z,100480.81
2023-04-27T15:51:39.085Z,100473.38
2023-04-27T15:54:05.889Z,100474.19
2023-04-27T15:56:32.449Z,100464.78
2023-04-27T15:58:58.881Z,100460.25
2023-04-27T16:01:25.989Z,100461.72
2023-04-27T16:03:52.654Z,100459.94
2023-04-27T16:06:19.074Z,100450.06
2023-04-27T16:08:45.519Z,100450.84
2023-04-27T16:11:13.025Z,100444.72
2023-04-27T16:13:39.841Z,100446.66
2023-04-27T16:16:07.536Z,100449.56
2023-04-27T16:18:35.029Z,100436.78
2023-04-27T16:21:01.495Z,100439.84
2023-04-27T16:23:28.040Z,100426.91
2023-04-27T16:25:54.583Z,100438.06
2023-04-27T16:28:21.209Z,100431.25
2023-04-27T16:30:47.624Z,100432.06
2023-04-27T16:33:14.801Z,100429.47
2023-04-27T16:35:41.276Z,100430.75
2023-04-27T16:38:07.756Z,100426.38
2023-04-27T16:40:34.242Z,100416.16
2023-04-27T16:43:00.705Z,100414.72
2023-04-27T16:45:27.282Z,100417.13
2023-04-27T16:47:53.777Z,100428.66
2023-04-27T16:50:20.291Z,100422.81
2023-04-27T16:52:46.731Z,100424.28
2023-04-27T16:55:13.282Z,100429.31
2023-04-27T16:57:39.938Z,100427.34
2023-04-27T17:00:06.773Z,100420.84
2023-04-27T17:02:33.487Z,100418.28
2023-04-27T17:05:00.672Z,100423.97
2023-04-27T17:07:32.668Z,100424.44
2023-04-27T17:09:59.652Z,100433.34
2023-04-27T17:12:26.133Z,100439.66
2023-04-27T17:14:52.713Z,100435.16
2023-04-27T17:17:19.219Z,100434.03
2023-04-27T17:19:45.619Z,100431.75
2023-04-27T17:22:13.344Z,100431.91
2023-04-27T17:24:39.953Z,100428.81
2023-04-27T17:27:06.469Z,100423.66
2023-04-27T17:29:32.970Z,100425.75
2023-04-27T17:31:59.468Z,100419.44
2023-04-27T17:34:26.000Z,100422.19
2023-04-27T17:36:52.546Z,100411.94
2023-04-27T17:39:20.481Z,100421.03
2023-04-27T17:41:47.049Z,100421.69
2023-04-27T17:44:13.570Z,100416.81
2023-04-27T17:46:45.003Z,100419.25
2023-04-27T17:49:11.757Z,100434.97
2023-04-27T17:51:38.191Z,100423.16
2023-04-27T17:54:05.091Z,100432.72
2023-04-27T17:56:31.733Z,100426.53
2023-04-27T17:58:58.187Z,100425.41
2023-04-27T18:01:24.657Z,100418.44
2023-04-27T18:03:51.634Z,100418.13
2023-04-27T18:06:20.861Z,100416.81
2023-04-27T18:08:47.644Z,100428.47
2023-04-27T18:11:14.130Z,100422.81
2023-04-27T18:13:40.934Z,100424.13
2023-04-27T18:16:07.457Z,100416.66
2023-04-27T18:18:33.958Z,100416.84
2023-04-27T18:21:00.474Z,100410.50
2023-04-27T18:23:27.075Z,100401.75
2023-04-27T18:25:53.791Z,100406.78
2023-04-27T18:28:20.639Z,100403.56
2023-04-27T18:30:47.260Z,100404.50
2023-04-27T18:33:13.870Z,100406.78
2023-04-27T18:35:40.451Z,100411.63
2023-04-27T18:38:06.956Z,100413.75
2023-04-27T18:40:36.024Z,100415.06
2023-04-27T18:43:02.545Z,100422.19
2023-04-27T18:45:29.046Z,100425.75
2023-04-27T18:47:55.773Z,100424.44
2023-04-27T18:50:22.291Z,100418.91
2023-04-27T18:52:48.943Z,100421.34
2023-04-27T18:55:16.857Z,100417.47
2023-04-27T18:57:43.347Z,100422.66
2023-04-27T19:00:11.196Z,100425.25
2023-04-27T19:02:37.940Z,100421.19
2023-04-27T19:05:12.472Z,100420.41
2023-04-27T19:07:39.906Z,100410.66
2023-04-27T19:10:06.753Z,100417.63
2023-04-27T19:12:33.442Z,100405.97
2023-04-27T19:15:00.741Z,100415.19
2023-04-27T19:17:27.634Z,100421.19
2023-04-27T19:19:55.087Z,100418.59
2023-04-27T19:22:23.815Z,100414.25
2023-04-27T19:24:50.367Z,100410.66
2023-04-27T19:27:17.399Z,100407.75
2023-04-27T19:29:51.263Z,100406.63
2023-04-27T19:32:17.891Z,100410.34
2023-04-27T19:34:44.696Z,100401.75
2023-04-27T19:37:11.311Z,100402.22
2023-04-27T19:39:38.348Z,100410.00
2023-04-27T19:42:04.845Z,100410.97
2023-04-27T19:44:31.291Z,100413.59
2023-04-27T19:46:57.816Z,100407.41
2023-04-27T19:49:24.411Z,100413.28
2023-04-27T19:51:51.131Z,100409.22
2023-04-27T19:54:17.907Z,100411.13
2023-04-27T19:56:44.749Z,100404.16
2023-04-27T19:59:11.238Z,100419.09
2023-04-27T20:01:37.743Z,100405.78
2023-04-27T20:08:22.314Z,100406.63
2023-04-27T20:25:35.407Z,100398.34
2023-04-27T20:36:19.817Z,100404.50
2023-04-27T20:39:42.632Z,100394.44
2023-04-27T20:46:45.863Z,100383.13
2023-04-27T20:50:27.629Z,100385.53
2023-04-27T20:53:50.568Z,100385.03
2023-04-27T21:00:54.474Z,100386.69
2023-04-27T21:19:00.759Z,100374.38
2023-04-27T21:22:23.739Z,100366.59
2023-04-27T21:25:46.276Z,100371.16
2023-04-27T21:36:30.910Z,100360.59
2023-04-27T21:39:53.547Z,100348.13
2023-04-27T21:46:57.685Z,100331.28
2023-04-27T21:50:20.678Z,100343.28
2023-04-27T21:53:43.615Z,100343.44
2023-04-27T22:04:27.871Z,100329.03
2023-04-27T22:07:50.490Z,100337.13
2023-04-27T22:11:13.253Z,100331.28
2023-04-27T22:14:36.046Z,100336.16
2023-04-27T22:17:58.881Z,100329.03
2023-04-27T22:21:15.585Z,100332.75
2023-04-27T22:23:42.132Z,100335.19
2023-04-27T22:28:52.337Z,100336.81
2023-04-27T22:36:47.308Z,100334.53
2023-04-27T22:44:42.226Z,100328.06
2023-04-27T22:47:08.690Z,100339.72
2023-04-27T22:49:36.753Z,100324.34
2023-04-27T22:57:31.386Z,100324.97
2023-04-27T22:59:57.748Z,100318.97
2023-04-27T23:02:24.314Z,100313.97
2023-04-27T23:04:50.966Z,100308.91
2023-04-27T23:07:18.346Z,100315.41
2023-04-27T23:09:44.983Z,100308.28
2023-04-27T23:12:11.520Z,100305.06
2023-04-27T23:14:37.891Z,100312.00
2023-04-27T23:17:04.390Z,100310.06
2023-04-27T23:19:30.976Z,100304.72
2023-04-27T23:21:57.370Z,100298.41
2023-04-27T23:24:23.833Z,100287.53
2023-04-27T23:26:50.345Z,100291.41
2023-04-27T23:29:16.741Z,100289.44
2023-04-27T23:31:43.235Z,100282.03
2023-04-27T23:34:09.846Z,100283.31
2023-04-27T23:39:20.514Z,100277.66
2023-04-27T23:41:46.951Z,100274.44
2023-04-27T23:44:13.396Z,100276.41
2023-04-27T23:46:39.952Z,100280.94
2023-04-27T23:49:06.442Z,100280.13
2023-04-27T23:54:17.654Z,100277.69
2023-04-27T23:56:44.416Z,100276.53
2023-04-27T23:59:11.007Z,100270.09
